Time;durP1;ratioP1;P1;durP2;ratioP2;P2;SDS_P1;SDS_P2;PMS_P1;PMS_P2;Temp;Humidity;BMP_temperature;BMP_pressure;BME280_temperature;BME280_humidity;BME280_pressure;Samples;Min_cycle;Max_cycle;Signal;HPM_P1;HPM_P2
2021/05/31 00:00:43;;;;;;;1.20;1.10;;;;;;;11.75;47.50;97229.50;5111436;28;20186;-67
2021/05/31 00:03:10;;;;;;;1.57;1.47;;;;;;;11.69;47.77;97225.13;5110669;28;20208;-66
2021/05/31 00:05:36;;;;;;;1.30;1.20;;;;;;;11.68;47.79;97226.13;5111077;28;20200;-67
2021/05/31 00:08:02;;;;;;;1.63;1.40;;;;;;;11.65;48.09;97214.25;5112008;28;20218;-67
2021/05/31 00:10:28;;;;;;;1.60;1.50;;;;;;;11.64;47.85;97217.91;5110408;28;20368;-67
2021/05/31 00:12:53;;;;;;;1.50;1.40;;;;;;;11.63;47.87;97215.50;5111057;28;20180;-67
2021/05/31 00:15:20;;;;;;;1.60;1.50;;;;;;;11.59;48.01;97212.50;5110654;28;20169;-67
2021/05/31 00:17:45;;;;;;;1.70;1.50;;;;;;;11.57;48.30;97211.94;5111470;28;20214;-68
2021/05/31 00:20:12;;;;;;;1.47;1.37;;;;;;;11.55;48.30;97205.28;5109932;28;20533;-67
2021/05/31 00:22:38;;;;;;;1.60;1.50;;;;;;;11.51;48.72;97204.94;5111326;28;20520;-67
2021/05/31 00:25:06;;;;;;;1.80;1.70;;;;;;;11.48;48.54;97205.38;5111175;28;20202;-68
2021/05/31 00:27:31;;;;;;;1.63;1.53;;;;;;;11.53;48.03;97199.50;5110453;28;20246;-68
2021/05/31 00:29:57;;;;;;;2.73;1.63;;;;;;;11.49;48.03;97198.31;5111515;28;20168;-67
2021/05/31 00:32:22;;;;;;;1.80;1.53;;;;;;;11.43;48.46;97200.00;5110513;28;20179;-68
2021/05/31 00:34:48;;;;;;;1.93;1.73;;;;;;;11.42;48.92;97195.00;5111341;28;20608;-68
2021/05/31 00:37:15;;;;;;;2.87;1.97;;;;;;;11.40;48.83;97197.03;5110047;28;20680;-67
2021/05/31 00:39:40;;;;;;;1.60;1.50;;;;;;;11.31;49.36;97199.16;5111252;28;20527;-67
2021/05/31 00:42:06;;;;;;;1.70;1.53;;;;;;;11.26;49.43;97191.13;5111495;28;20258;-67
2021/05/31 00:44:32;;;;;;;1.90;1.70;;;;;;;11.22;49.54;97192.59;5092177;28;20704;-67
2021/05/31 00:46:58;;;;;;;2.73;1.57;;;;;;;11.09;50.01;97184.91;5111405;28;20192;-67
2021/05/31 00:49:28;;;;;;;2.23;2.03;;;;;;;11.07;50.43;97185.09;5110402;28;20663;-67
2021/05/31 00:51:54;;;;;;;3.13;2.10;;;;;;;11.04;50.60;97185.53;5095430;28;20211;-67
2021/05/31 00:54:20;;;;;;;2.90;2.00;;;;;;;10.94;50.88;97182.63;5110115;28;20176;-67
2021/05/31 00:56:46;;;;;;;2.40;2.00;;;;;;;10.96;50.84;97179.78;5110665;28;20609;-68
2021/05/31 00:59:13;;;;;;;2.70;2.27;;;;;;;10.89;51.40;97187.72;5090843;28;20228;-67
2021/05/31 01:01:39;;;;;;;3.10;2.00;;;;;;;10.88;51.29;97186.13;5090279;28;20234;-67
2021/05/31 01:04:06;;;;;;;3.20;1.97;;;;;;;11.03;50.89;97177.91;5090115;28;20525;-67
2021/05/31 01:06:38;;;;;;;1.80;1.70;;;;;;;10.85;51.42;97173.44;5089384;28;20450;-67
2021/05/31 01:09:29;;;;;;;2.20;1.70;;;;;;;10.78;51.33;97177.97;5090418;28;20207;-67
2021/05/31 01:12:07;;;;;;;1.70;1.60;;;;;;;10.82;51.24;97169.44;5087119;28;20207;-68
2021/05/31 01:14:42;;;;;;;1.87;1.70;;;;;;;10.74;51.24;97174.97;5075066;28;20177;-68
2021/05/31 01:17:23;;;;;;;1.50;1.40;;;;;;;10.65;51.34;97173.63;5094078;28;20207;-69
2021/05/31 01:19:48;;;;;;;1.70;1.60;;;;;;;10.67;51.26;97174.22;5078287;28;20169;-67
2021/05/31 01:22:15;;;;;;;2.37;2.13;;;;;;;10.60;51.36;97177.94;5093412;28;20188;-70
2021/05/31 01:24:52;;;;;;;1.63;1.50;;;;;;;10.49;51.99;97174.19;5093337;28;20197;-67
2021/05/31 01:27:20;;;;;;;1.33;1.23;;;;;;;10.51;51.95;97174.81;5092932;28;20204;-68
2021/05/31 01:29:52;;;;;;;1.50;1.40;;;;;;;10.53;52.08;97170.16;5093783;28;20181;-67
2021/05/31 01:32:22;;;;;;;2.27;1.80;;;;;;;10.44;52.27;97168.81;5093060;28;20169;-68
2021/05/31 01:34:49;;;;;;;1.60;1.50;;;;;;;10.37;52.84;97176.72;5093776;28;20183;-68
2021/05/31 01:37:21;;;;;;;2.17;1.50;;;;;;;10.43;52.56;97175.06;5093401;28;20200;-72
2021/05/31 01:39:49;;;;;;;1.90;1.53;;;;;;;10.37;52.63;97175.94;5093346;28;20264;-68
2021/05/31 01:42:16;;;;;;;2.00;1.40;;;;;;;10.39;52.87;97173.91;5075032;28;20613;-71
2021/05/31 01:44:44;;;;;;;1.60;1.50;;;;;;;10.25;53.24;97173.19;5093476;28;20204;-68
2021/05/31 01:47:10;;;;;;;1.33;1.27;;;;;;;10.13;53.47;97169.66;5093863;28;20634;-69
2021/05/31 01:49:36;;;;;;;1.43;1.33;;;;;;;10.25;53.62;97167.19;5092907;28;20184;-69
2021/05/31 01:52:03;;;;;;;1.60;1.50;;;;;;;10.16;53.62;97158.78;5075446;28;20191;-69
2021/05/31 01:54:29;;;;;;;1.57;1.40;;;;;;;10.18;53.38;97156.75;5092458;28;20263;-69
2021/05/31 01:56:56;;;;;;;2.90;1.70;;;;;;;10.13;53.50;97153.16;5093450;28;20208;-68
2021/05/31 01:59:22;;;;;;;2.83;1.63;;;;;;;10.17;53.68;97157.78;5050559;28;20805;-70
2021/05/31 02:01:52;;;;;;;1.83;1.70;;;;;;;10.05;53.85;97159.44;5052915;28;20269;-69
2021/05/31 02:04:17;;;;;;;3.33;1.30;;;;;;;10.06;53.43;97158.44;5052096;28;20203;-70
2021/05/31 02:06:43;;;;;;;1.83;1.50;;;;;;;10.19;53.57;97154.94;5053117;28;20240;-70
2021/05/31 02:09:08;;;;;;;1.60;1.50;;;;;;;10.08;53.84;97158.22;5052813;28;20264;-69
2021/05/31 02:11:38;;;;;;;1.80;1.30;;;;;;;10.17;53.82;97152.53;5052207;28;20272;-69
2021/05/31 02:14:09;;;;;;;1.57;1.47;;;;;;;10.07;53.86;97152.19;5052460;28;20178;-69
2021/05/31 02:16:41;;;;;;;1.73;1.50;;;;;;;10.00;53.73;97148.81;5052250;28;20220;-69
2021/05/31 02:19:10;;;;;;;1.50;1.40;;;;;;;9.90;54.23;97149.31;5052994;28;20265;-71
2021/05/31 02:21:39;;;;;;;1.17;1.17;;;;;;;9.91;54.28;97147.47;5051288;28;20651;-70
2021/05/31 02:24:05;;;;;;;1.30;1.20;;;;;;;9.89;54.16;97146.88;5052980;28;20178;-69
2021/05/31 02:26:32;;;;;;;1.60;1.50;;;;;;;9.90;54.63;97151.91;5051873;28;20206;-68
2021/05/31 02:28:58;;;;;;;1.47;1.37;;;;;;;9.89;54.59;97150.31;5052783;28;20644;-68
2021/05/31 02:31:24;;;;;;;1.60;1.50;;;;;;;9.91;54.55;97150.09;5052011;28;20228;-68
2021/05/31 02:33:49;;;;;;;1.57;1.47;;;;;;;9.81;54.73;97152.38;5052301;28;20228;-68
2021/05/31 02:36:17;;;;;;;1.67;1.30;;;;;;;9.82;54.84;97151.34;5052199;28;20166;-74
2021/05/31 02:38:43;;;;;;;1.70;1.60;;;;;;;9.78;55.15;97153.59;5051219;28;20174;-68
2021/05/31 02:41:09;;;;;;;1.80;1.70;;;;;;;9.76;55.29;97155.63;5052914;28;20604;-68
2021/05/31 02:43:35;;;;;;;1.80;1.70;;;;;;;9.75;55.74;97159.25;5050212;28;20170;-68
2021/05/31 02:46:01;;;;;;;1.70;1.60;;;;;;;9.69;55.73;97154.88;5052352;28;20259;-68
2021/05/31 02:48:27;;;;;;;2.47;1.27;;;;;;;9.67;55.91;97150.88;5051303;28;20181;-68
2021/05/31 02:50:56;;;;;;;1.67;1.57;;;;;;;9.64;55.90;97159.94;5052028;28;20185;-69
2021/05/31 02:53:24;;;;;;;2.07;1.57;;;;;;;9.57;56.09;97156.56;5049915;28;20167;-71
2021/05/31 02:55:51;;;;;;;3.80;1.50;;;;;;;9.62;56.29;97166.41;5036317;28;20644;-69
2021/05/31 02:58:17;;;;;;;1.67;1.40;;;;;;;9.50;56.51;97155.81;5070006;28;20700;-73
2021/05/31 03:00:43;;;;;;;1.70;1.53;;;;;;;9.37;56.99;97161.91;5093451;28;20173;-68
2021/05/31 03:03:09;;;;;;;1.93;1.73;;;;;;;9.36;57.25;97160.28;5109316;28;20186;-68
2021/05/31 03:05:36;;;;;;;2.37;1.67;;;;;;;9.38;57.11;97154.84;5094694;28;20201;-68
2021/05/31 03:08:01;;;;;;;2.50;1.60;;;;;;;9.47;56.66;97154.41;5098994;28;20223;-67
2021/05/31 03:10:28;;;;;;;2.23;2.03;;;;;;;9.36;57.16;97149.81;5108045;28;20648;-68
2021/05/31 03:12:54;;;;;;;1.77;1.67;;;;;;;9.27;57.28;97147.66;5093251;28;20173;-69
2021/05/31 03:15:20;;;;;;;1.63;1.53;;;;;;;9.31;57.65;97147.03;5091805;28;20193;-68
2021/05/31 03:17:49;;;;;;;1.60;1.50;;;;;;;9.35;57.71;97153.47;5100727;28;20584;-68
2021/05/31 03:20:18;;;;;;;1.60;1.50;;;;;;;9.42;57.20;97154.22;5092426;28;20169;-73
2021/05/31 03:22:43;;;;;;;1.83;1.60;;;;;;;9.25;58.00;97154.94;5092064;28;20259;-68
2021/05/31 03:25:10;;;;;;;1.57;1.47;;;;;;;9.27;58.48;97158.13;5100026;28;20271;-70
2021/05/31 03:27:36;;;;;;;1.80;1.70;;;;;;;9.26;58.37;97159.13;5092877;28;20798;-69
2021/05/31 03:30:08;;;;;;;1.90;1.60;;;;;;;9.23;58.56;97157.75;5103657;28;20175;-69
2021/05/31 03:32:34;;;;;;;1.50;1.40;;;;;;;9.28;58.54;97160.56;5100989;28;20982;-70
2021/05/31 03:34:59;;;;;;;2.07;1.60;;;;;;;9.22;58.98;97152.72;5104716;28;20175;-70
2021/05/31 03:37:25;;;;;;;4.40;2.20;;;;;;;9.37;58.73;97161.91;5104283;28;20222;-74
2021/05/31 03:39:50;;;;;;;2.70;1.80;;;;;;;9.38;58.49;97158.28;5111747;28;20182;-69
2021/05/31 03:42:18;;;;;;;1.70;1.60;;;;;;;9.39;58.82;97153.84;5111190;28;20168;-75
2021/05/31 03:44:43;;;;;;;2.40;2.20;;;;;;;9.46;58.76;97159.84;5101157;28;20276;-70
2021/05/31 03:47:10;;;;;;;3.20;1.80;;;;;;;9.48;58.68;97163.03;5099310;28;20656;-69
2021/05/31 03:49:35;;;;;;;1.80;1.70;;;;;;;9.76;57.88;97150.41;5093327;28;20881;-70
2021/05/31 03:52:00;;;;;;;1.73;1.63;;;;;;;9.75;58.08;97151.41;5096892;28;20225;-70
2021/05/31 03:54:26;;;;;;;2.10;1.63;;;;;;;9.93;57.55;97155.91;5102209;28;20173;-70
2021/05/31 03:56:52;;;;;;;1.80;1.60;;;;;;;10.08;57.54;97158.22;5096499;28;20195;-70
2021/05/31 03:59:18;;;;;;;1.80;1.57;;;;;;;10.02;57.94;97159.88;5093266;28;20603;-75
2021/05/31 04:01:45;;;;;;;2.03;1.87;;;;;;;10.16;57.21;97161.41;5099146;28;20173;-71
2021/05/31 04:04:11;;;;;;;1.80;1.70;;;;;;;10.19;57.40;97166.22;5092381;28;20601;-70
2021/05/31 04:11:59;;;;;;;1.80;1.70;;;;;;;10.71;55.65;97157.03;5098926;28;20176;-70
2021/05/31 04:14:25;;;;;;;2.10;1.90;;;;;;;10.96;55.58;97156.19;5107129;28;20183;-70
2021/05/31 04:16:53;;;;;;;3.37;1.47;;;;;;;10.85;55.96;97155.09;5092055;28;20196;-70
2021/05/31 04:19:20;;;;;;;2.10;2.00;;;;;;;11.01;55.39;97149.25;5098341;28;20193;-69
2021/05/31 04:21:49;;;;;;;1.70;1.60;;;;;;;11.15;55.12;97144.63;5107208;28;20235;-71
2021/05/31 04:24:15;;;;;;;2.10;1.70;;;;;;;11.25;54.40;97143.13;5098316;28;20205;-76
2021/05/31 04:26:41;;;;;;;2.43;1.80;;;;;;;11.19;55.10;97148.44;5102345;28;20204;-70
2021/05/31 04:29:09;;;;;;;1.87;1.70;;;;;;;11.21;55.30;97146.38;5105744;28;20637;-70
2021/05/31 04:31:36;;;;;;;1.90;1.80;;;;;;;11.02;55.97;97150.06;5091238;28;20221;-72
2021/05/31 04:34:03;;;;;;;2.20;2.00;;;;;;;11.18;55.50;97158.13;5097955;28;20172;-70
2021/05/31 04:36:33;;;;;;;2.60;1.77;;;;;;;11.22;55.51;97150.59;5101858;28;20189;-68
2021/05/31 04:39:01;;;;;;;2.13;1.80;;;;;;;11.18;56.12;97155.50;5104579;28;20227;-67
2021/05/31 04:41:26;;;;;;;2.07;1.93;;;;;;;11.18;55.72;97149.47;5108695;28;20191;-70
2021/05/31 04:43:52;;;;;;;2.10;1.60;;;;;;;11.21;55.54;97152.44;5099828;28;20625;-70
2021/05/31 04:46:17;;;;;;;1.77;1.67;;;;;;;11.40;55.32;97152.41;5098653;28;20226;-76
2021/05/31 04:48:44;;;;;;;1.80;1.70;;;;;;;11.49;55.42;97151.84;5111827;28;20190;-70
2021/05/31 04:51:09;;;;;;;2.00;1.80;;;;;;;11.70;54.66;97149.78;5101618;28;20570;-70
2021/05/31 04:53:35;;;;;;;2.97;1.70;;;;;;;11.58;54.86;97149.72;5104761;28;20187;-70
2021/05/31 04:56:03;;;;;;;2.00;1.80;;;;;;;11.76;54.98;97159.41;5107912;28;20225;-71
2021/05/31 04:58:29;;;;;;;1.90;1.80;;;;;;;11.93;54.65;97147.22;5105492;28;20223;-70
2021/05/31 05:00:54;;;;;;;2.67;2.20;;;;;;;12.07;53.98;97151.25;5114747;28;20633;-70
2021/05/31 05:03:20;;;;;;;1.60;1.50;;;;;;;12.31;53.20;97158.13;5114412;28;20164;-70
2021/05/31 05:05:47;;;;;;;3.20;2.10;;;;;;;12.59;52.69;97159.28;5115043;28;20253;-70
2021/05/31 05:08:13;;;;;;;2.50;2.00;;;;;;;12.23;53.46;97157.66;5114835;28;20192;-70
2021/05/31 05:10:39;;;;;;;1.90;1.80;;;;;;;12.42;53.20;97162.59;5114381;28;20179;-70
2021/05/31 05:13:05;;;;;;;2.27;1.93;;;;;;;12.58;52.80;97158.47;5114076;28;20164;-71
2021/05/31 05:15:30;;;;;;;2.93;1.87;;;;;;;12.31;52.78;97160.75;5113900;28;20171;-70
2021/05/31 05:17:56;;;;;;;1.90;1.80;;;;;;;12.63;52.50;97155.13;5114753;28;20204;-70
2021/05/31 05:20:24;;;;;;;2.63;1.80;;;;;;;12.71;52.36;97155.56;5113824;28;20168;-73
2021/05/31 05:22:50;;;;;;;3.30;1.90;;;;;;;12.93;51.76;97157.63;5114684;28;20169;-69
2021/05/31 05:25:17;;;;;;;4.70;1.90;;;;;;;12.87;51.62;97159.34;5095830;28;20633;-76
2021/05/31 05:27:44;;;;;;;2.03;1.83;;;;;;;13.12;51.50;97151.19;5115020;28;20196;-70
2021/05/31 05:30:12;;;;;;;2.60;1.93;;;;;;;13.08;51.47;97155.31;5114823;28;20551;-68
2021/05/31 05:32:38;;;;;;;1.80;1.70;;;;;;;13.24;50.76;97158.03;5113811;28;20188;-68
2021/05/31 05:35:18;;;;;;;2.10;1.90;;;;;;;13.36;50.25;97158.00;5114043;28;20241;-68
2021/05/31 05:47:03;;;;;;;2.03;1.70;;;;;;;13.45;49.75;97158.41;5113834;28;20207;-68
2021/05/31 05:48:45;;;;;;;2.13;1.53;;;;;;;13.42;50.23;97156.25;5095691;28;20218;-69
2021/05/31 05:51:11;;;;;;;2.03;1.83;;;;;;;13.40;50.08;97160.94;5114006;28;20199;-71
2021/05/31 05:53:38;;;;;;;1.70;1.60;;;;;;;13.49;50.13;97167.41;5113152;28;20183;-69
2021/05/31 05:56:06;;;;;;;1.90;1.67;;;;;;;14.01;48.86;97165.44;5112597;28;20231;-71
2021/05/31 05:58:32;;;;;;;2.30;2.10;;;;;;;14.06;49.10;97168.16;5099042;28;20239;-70
2021/05/31 06:00:59;;;;;;;4.30;1.80;;;;;;;13.74;49.10;97173.97;5093006;28;20173;-71
2021/05/31 06:03:25;;;;;;;6.40;2.77;;;;;;;13.32;50.08;97167.38;5092731;28;20256;-71
2021/05/31 06:05:52;;;;;;;16.30;2.67;;;;;;;13.53;49.36;97165.94;5093510;28;20287;-71
2021/05/31 06:08:19;;;;;;;3.00;2.00;;;;;;;13.74;48.44;97163.44;5092989;28;20193;-71
2021/05/31 06:10:44;;;;;;;1.33;1.23;;;;;;;14.33;47.30;97169.13;5093339;28;20207;-71
2021/05/31 06:13:10;;;;;;;1.57;1.40;;;;;;;14.35;47.59;97174.97;5092994;28;20200;-71
2021/05/31 06:15:36;;;;;;;1.63;1.53;;;;;;;13.98;48.48;97176.47;5092445;28;20521;-67
2021/05/31 06:18:03;;;;;;;1.77;1.67;;;;;;;13.84;48.21;97178.59;5093274;28;20676;-70
2021/05/31 06:20:28;;;;;;;1.97;1.60;;;;;;;14.05;48.67;97174.47;5092251;28;20177;-69
2021/05/31 06:22:53;;;;;;;1.50;1.40;;;;;;;14.08;48.29;97180.09;5092715;28;20306;-68
2021/05/31 06:25:20;;;;;;;2.77;1.87;;;;;;;14.40;47.39;97179.53;5092425;28;20188;-68
2021/05/31 06:27:46;;;;;;;5.83;2.33;;;;;;;14.55;47.63;97179.78;5074729;28;20700;-68
2021/05/31 06:30:12;;;;;;;7.73;2.60;;;;;;;14.52;47.69;97183.69;5092836;28;20249;-68
2021/05/31 06:32:38;;;;;;;2.93;2.40;;;;;;;14.49;48.27;97189.44;5091953;28;20191;-69
2021/05/31 06:35:04;;;;;;;2.67;2.20;;;;;;;14.64;47.87;97183.59;5093006;28;20169;-70
2021/05/31 06:37:31;;;;;;;5.03;2.57;;;;;;;14.88;47.11;97177.06;5091503;28;20659;-70
2021/05/31 06:39:58;;;;;;;2.63;2.40;;;;;;;15.16;46.76;97175.31;5092723;28;20314;-70
2021/05/31 06:42:23;;;;;;;1.80;1.70;;;;;;;14.96;46.39;97174.03;5091636;28;20172;-71
2021/05/31 06:44:49;;;;;;;2.43;2.17;;;;;;;14.97;47.37;97166.91;5092342;28;20200;-67
2021/05/31 06:47:14;;;;;;;3.70;2.60;;;;;;;15.41;46.72;97165.03;5088659;28;20730;-68
2021/05/31 06:49:40;;;;;;;2.30;2.10;;;;;;;15.37;46.66;97163.94;5090513;28;20268;-67
2021/05/31 06:52:06;;;;;;;2.07;1.97;;;;;;;15.35;46.38;97161.56;5089685;28;20675;-69
2021/05/31 06:54:32;;;;;;;4.37;2.77;;;;;;;15.36;46.53;97162.34;5091034;28;20193;-68
2021/05/31 06:56:58;;;;;;;3.97;2.23;;;;;;;15.31;45.16;97167.56;5091518;28;20753;-68
2021/05/31 06:59:25;;;;;;;2.73;1.83;;;;;;;15.55;45.32;97160.22;5096563;28;20319;-68
2021/05/31 07:01:51;;;;;;;2.27;2.00;;;;;;;15.39;45.31;97160.00;5105794;28;20179;-68
2021/05/31 07:04:18;;;;;;;1.90;1.80;;;;;;;15.30;45.90;97161.50;5104184;28;20196;-69
2021/05/31 07:06:44;;;;;;;5.45;2.17;;;;;;;15.82;45.85;97162.84;5104988;28;20629;-68
2021/05/31 07:09:11;;;;;;;2.03;1.77;;;;;;;15.67;44.26;97158.19;5099710;28;20175;-68
2021/05/31 07:11:39;;;;;;;1.83;1.73;;;;;;;15.40;45.24;97161.59;5095051;28;20177;-68
2021/05/31 07:14:05;;;;;;;2.23;2.03;;;;;;;15.45;45.16;97154.78;5094886;28;20238;-68
2021/05/31 07:16:32;;;;;;;1.60;1.50;;;;;;;15.34;44.08;97167.06;5095101;28;20188;-68
2021/05/31 07:18:58;;;;;;;1.47;1.37;;;;;;;15.38;42.31;97155.75;5104399;28;20187;-68
2021/05/31 07:21:24;;;;;;;1.20;1.20;;;;;;;15.23;42.90;97157.44;5105398;28;20696;-69
2021/05/31 07:23:49;;;;;;;1.60;1.50;;;;;;;15.16;42.89;97152.34;5106452;28;20247;-68
2021/05/31 07:26:16;;;;;;;1.50;1.40;;;;;;;15.23;41.81;97150.31;5091925;28;20204;-68
2021/05/31 07:28:41;;;;;;;1.57;1.47;;;;;;;15.24;41.32;97153.75;5096524;28;20184;-68
2021/05/31 07:31:07;;;;;;;1.57;1.47;;;;;;;15.36;40.99;97162.34;5093198;28;20176;-69
2021/05/31 07:33:32;;;;;;;1.20;1.20;;;;;;;15.51;40.63;97165.16;5108725;28;20636;-68
2021/05/31 07:36:01;;;;;;;1.57;1.30;;;;;;;15.53;40.56;97155.19;5090647;28;20513;-68
2021/05/31 07:38:27;;;;;;;1.50;1.40;;;;;;;15.46;40.63;97159.00;5086319;28;20635;-68
2021/05/31 07:40:54;;;;;;;1.53;1.30;;;;;;;15.34;41.02;97153.88;5106108;28;20168;-67
2021/05/31 07:43:19;;;;;;;3.03;1.47;;;;;;;15.80;39.94;97155.97;5105262;28;20183;-69
2021/05/31 07:45:45;;;;;;;1.40;1.27;;;;;;;15.66;38.95;97162.69;5102671;28;20192;-67
2021/05/31 07:48:10;;;;;;;1.47;1.37;;;;;;;15.31;38.10;97154.38;5102092;28;20649;-68
2021/05/31 07:50:36;;;;;;;1.30;1.20;;;;;;;15.49;38.34;97171.75;5095548;28;20187;-68
2021/05/31 07:53:02;;;;;;;1.90;1.33;;;;;;;15.42;38.56;97164.00;5096375;28;20547;-67
2021/05/31 07:55:28;;;;;;;1.37;1.27;;;;;;;15.41;37.90;97172.97;5095490;28;20168;-67
2021/05/31 07:57:54;;;;;;;2.10;1.50;;;;;;;15.44;37.98;97161.09;5107081;28;20292;-67
2021/05/31 08:00:22;;;;;;;1.60;1.50;;;;;;;15.63;38.87;97162.41;5110120;28;20660;-67
2021/05/31 08:02:48;;;;;;;1.37;1.27;;;;;;;15.83;38.23;97156.53;5111282;28;20258;-67
2021/05/31 08:05:15;;;;;;;1.57;1.47;;;;;;;16.02;38.63;97161.19;5110900;28;20184;-67
2021/05/31 08:07:42;;;;;;;1.10;1.10;;;;;;;15.98;37.99;97167.22;5110018;28;20227;-67
2021/05/31 08:10:08;;;;;;;1.63;1.53;;;;;;;15.98;38.99;97168.03;5110855;28;20582;-67
2021/05/31 08:12:35;;;;;;;2.53;1.50;;;;;;;16.19;39.15;97159.22;5110015;28;20582;-67
2021/05/31 08:15:03;;;;;;;1.40;1.30;;;;;;;16.24;38.99;97150.50;5111111;28;20590;-68
2021/05/31 08:17:28;;;;;;;4.27;1.47;;;;;;;16.31;39.55;97150.31;5109755;28;20191;-67
2021/05/31 08:19:54;;;;;;;1.57;1.40;;;;;;;16.29;39.24;97153.19;5110826;28;20255;-68
2021/05/31 08:22:21;;;;;;;1.33;1.23;;;;;;;16.42;37.89;97149.31;5110145;28;20719;-67
2021/05/31 08:24:46;;;;;;;1.60;1.50;;;;;;;16.18;38.68;97146.22;5110951;28;20225;-68
2021/05/31 08:27:12;;;;;;;1.40;1.30;;;;;;;16.19;39.38;97153.13;5092542;28;20605;-67
2021/05/31 08:29:37;;;;;;;1.50;1.40;;;;;;;16.21;38.85;97141.25;5109690;28;20176;-67
2021/05/31 08:32:03;;;;;;;1.30;1.30;;;;;;;16.31;38.60;97142.38;5110441;28;20160;-67
2021/05/31 08:34:29;;;;;;;1.30;1.20;;;;;;;16.28;38.98;97145.50;5109452;28;20172;-67
2021/05/31 08:36:55;;;;;;;1.10;1.10;;;;;;;16.03;38.98;97139.00;5103496;28;20196;-67
2021/05/31 08:39:20;;;;;;;1.33;1.30;;;;;;;16.25;39.03;97138.09;5106425;28;20228;-67
2021/05/31 08:41:46;;;;;;;1.43;1.33;;;;;;;16.17;39.79;97140.16;5092288;28;20187;-68
2021/05/31 08:44:11;;;;;;;1.60;1.50;;;;;;;16.18;40.29;97147.03;5110374;28;20588;-68
2021/05/31 08:46:38;;;;;;;1.33;1.23;;;;;;;15.89;40.58;97151.00;5091383;28;20211;-68
2021/05/31 08:49:05;;;;;;;1.50;1.40;;;;;;;16.00;40.62;97136.84;5106618;28;20176;-68
2021/05/31 08:51:32;;;;;;;2.28;1.48;;;;;;;16.35;40.22;97143.44;5109526;28;20252;-68
2021/05/31 08:53:58;;;;;;;1.50;1.40;;;;;;;16.02;40.19;97145.31;5110342;28;20698;-67
2021/05/31 08:56:23;;;;;;;1.45;1.35;;;;;;;16.08;39.72;97144.31;5108990;28;20187;-67
2021/05/31 08:58:49;;;;;;;1.57;1.47;;;;;;;16.26;39.49;97134.41;5094175;28;20240;-67
2021/05/31 09:01:15;;;;;;;1.50;1.40;;;;;;;16.52;39.68;97136.94;5084127;28;20177;-67
2021/05/31 09:03:42;;;;;;;1.55;1.40;;;;;;;16.37;39.38;97147.44;5089407;28;20519;-67
2021/05/31 09:06:10;;;;;;;1.50;1.40;;;;;;;16.53;38.10;97137.75;5090138;28;20193;-68
2021/05/31 09:08:36;;;;;;;1.30;1.30;;;;;;;16.45;38.41;97138.22;5089191;28;20207;-67
2021/05/31 09:11:06;;;;;;;1.30;1.23;;;;;;;16.05;37.33;97138.75;5090100;28;20172;-67
2021/05/31 09:13:34;;;;;;;1.30;1.30;;;;;;;16.12;38.45;97134.00;5088465;28;20173;-67
2021/05/31 09:16:21;;;;;;;6.30;1.30;;;;;;;15.94;39.42;97129.13;5089838;28;20645;-67
2021/05/31 09:18:54;;;;;;;1.60;1.50;;;;;;;15.90;40.12;97135.94;5081771;28;20177;-67
2021/05/31 09:21:29;;;;;;;1.57;1.47;;;;;;;15.83;40.04;97128.22;5089772;28;20650;-66
2021/05/31 09:23:58;;;;;;;1.30;1.30;;;;;;;16.27;39.91;97130.72;5085729;28;20164;-68
2021/05/31 09:26:24;;;;;;;2.40;1.50;;;;;;;16.44;39.57;97131.34;5088418;28;20334;-67
2021/05/31 09:28:53;;;;;;;1.50;1.40;;;;;;;16.47;38.72;97130.84;5072015;28;20180;-67
2021/05/31 09:31:21;;;;;;;1.37;1.27;;;;;;;16.42;38.84;97136.09;5091525;28;20550;-66
2021/05/31 09:34:02;;;;;;;1.33;1.23;;;;;;;16.13;38.77;97136.41;5093694;28;20302;-67
2021/05/31 09:36:29;;;;;;;1.93;1.63;;;;;;;16.06;39.27;97146.41;5092068;28;20207;-67
2021/05/31 09:38:55;;;;;;;1.60;1.50;;;;;;;16.00;39.50;97126.25;5093580;28;20180;-67
2021/05/31 09:41:29;;;;;;;1.40;1.30;;;;;;;16.19;38.16;97132.75;5092632;28;20169;-66
2021/05/31 09:44:03;;;;;;;1.27;1.23;;;;;;;16.06;38.97;97133.19;5089108;28;20238;-67
2021/05/31 09:46:39;;;;;;;1.57;1.23;;;;;;;16.18;38.07;97117.13;5092185;28;20196;-67
2021/05/31 09:49:11;;;;;;;2.37;1.47;;;;;;;16.23;38.71;97122.47;5093427;28;20647;-67
2021/05/31 09:51:55;;;;;;;1.70;1.60;;;;;;;16.20;39.03;97126.44;5092266;28;20716;-67
2021/05/31 09:54:57;;;;;;;1.50;1.40;;;;;;;16.35;38.55;97130.22;5091964;28;20184;-67
2021/05/31 09:57:31;;;;;;;1.20;1.20;;;;;;;16.34;38.50;97129.41;5086568;28;20301;-68
2021/05/31 10:00:21;;;;;;;2.57;1.50;;;;;;;16.14;37.98;97134.56;5091772;28;20183;-67
2021/05/31 10:03:01;;;;;;;1.30;1.30;;;;;;;16.03;37.42;97128.41;5084639;28;20521;-67
2021/05/31 10:10:42;;;;;;;1.43;1.33;;;;;;;16.15;39.08;97125.59;5092219;28;20593;-67
2021/05/31 10:13:07;;;;;;;2.53;1.50;;;;;;;16.14;39.28;97138.03;5092450;28;20176;-67
2021/05/31 10:15:36;;;;;;;1.80;1.67;;;;;;;16.08;37.98;97119.72;5091629;28;20184;-67
2021/05/31 10:18:05;;;;;;;2.10;1.53;;;;;;;16.19;37.64;97119.53;5092636;28;20200;-67
2021/05/31 10:20:31;;;;;;;1.50;1.40;;;;;;;15.98;37.51;97119.63;5080869;28;20184;-69
2021/05/31 10:22:58;;;;;;;1.60;1.50;;;;;;;15.95;37.59;97110.34;5092694;28;20180;-67
2021/05/31 10:25:25;;;;;;;1.47;1.37;;;;;;;16.12;38.05;97108.38;5091406;28;20205;-67
2021/05/31 10:27:55;;;;;;;2.33;1.40;;;;;;;16.32;38.50;97109.56;5091971;28;20196;-68
2021/05/31 10:30:21;;;;;;;1.20;1.20;;;;;;;16.62;37.75;97117.72;5091813;28;20184;-67
2021/05/31 10:32:48;;;;;;;1.53;1.43;;;;;;;16.31;36.87;97110.63;5092200;28;20188;-68
2021/05/31 10:35:27;;;;;;;1.30;1.27;;;;;;;16.54;38.43;97102.31;5092092;28;20165;-68
2021/05/31 10:37:59;;;;;;;1.30;1.23;;;;;;;16.58;37.40;97098.88;5087538;28;20207;-68
2021/05/31 10:40:52;;;;;;;1.20;1.10;;;;;;;16.60;37.62;97101.31;5091354;28;20188;-70
2021/05/31 10:43:20;;;;;;;1.70;1.60;;;;;;;16.67;37.85;97096.56;5088502;28;21580;-68
2021/05/31 10:45:47;;;;;;;1.50;1.40;;;;;;;16.53;35.82;97098.06;5073700;28;20200;-68
2021/05/31 10:48:15;;;;;;;1.40;1.30;;;;;;;16.31;36.95;97105.34;5073278;28;20224;-68
2021/05/31 10:50:45;;;;;;;1.50;1.40;;;;;;;16.36;36.27;97100.06;5091217;28;20911;-68
2021/05/31 10:55:58;;;;;;;2.03;1.60;;;;;;;16.68;37.05;97102.66;5091615;28;20190;-69
2021/05/31 10:58:27;;;;;;;1.87;1.67;;;;;;;16.53;36.65;97106.00;5056483;28;20324;-68
2021/05/31 11:01:02;;;;;;;1.33;1.30;;;;;;;16.61;36.62;97102.88;5050707;28;20216;-68
2021/05/31 11:03:29;;;;;;;1.40;1.30;;;;;;;16.65;36.54;97098.69;5050609;28;20193;-69
2021/05/31 11:05:55;;;;;;;1.57;1.47;;;;;;;16.59;37.43;97102.34;5051331;28;20678;-68
2021/05/31 11:08:30;;;;;;;1.57;1.30;;;;;;;16.57;37.10;97085.91;5050951;28;20663;-68
2021/05/31 11:11:01;;;;;;;1.57;1.47;;;;;;;16.81;37.09;97091.63;5051795;28;20260;-69
2021/05/31 11:13:28;;;;;;;1.83;1.40;;;;;;;16.92;36.72;97095.91;5050129;28;20174;-69
2021/05/31 11:16:09;;;;;;;1.50;1.40;;;;;;;16.95;36.84;97101.47;5050007;28;20174;-70
2021/05/31 11:18:45;;;;;;;2.13;1.50;;;;;;;16.92;35.16;97101.19;5043203;28;20609;-70
2021/05/31 11:21:24;;;;;;;1.03;1.03;;;;;;;17.04;35.38;97104.41;5051268;28;20181;-70
2021/05/31 11:24:05;;;;;;;4.00;1.20;;;;;;;17.07;35.83;97106.53;5050966;28;20174;-70
2021/05/31 11:26:35;;;;;;;3.03;1.30;;;;;;;16.80;35.94;97104.06;5038413;28;20214;-70
2021/05/31 11:29:02;;;;;;;3.35;1.30;;;;;;;16.86;36.44;97099.56;5050901;28;20221;-70
2021/05/31 11:31:28;;;;;;;1.38;1.30;;;;;;;16.91;34.85;97103.03;5048990;28;20232;-71
2021/05/31 11:33:55;;;;;;;1.33;1.30;;;;;;;16.88;34.86;97100.91;5050813;28;20183;-71
2021/05/31 11:36:32;;;;;;;1.30;1.30;;;;;;;16.84;35.25;97094.53;5050196;28;20209;-71
2021/05/31 11:39:00;;;;;;;1.60;1.50;;;;;;;17.04;35.99;97088.53;5051292;28;20231;-70
2021/05/31 11:41:38;;;;;;;2.38;1.20;;;;;;;17.11;35.65;97097.00;5050510;28;20561;-71
2021/05/31 11:44:06;;;;;;;1.73;1.40;;;;;;;17.09;35.70;97085.91;5050618;28;20261;-70
2021/05/31 11:46:32;;;;;;;1.10;1.10;;;;;;;17.38;36.46;97083.59;5042287;28;20592;-70
2021/05/31 11:49:06;;;;;;;1.45;1.35;;;;;;;17.64;35.89;97087.88;5051224;28;20702;-68
2021/05/31 11:51:32;;;;;;;1.45;1.35;;;;;;;17.46;34.81;97083.06;5050168;28;20181;-68
2021/05/31 11:53:57;;;;;;;1.20;1.20;;;;;;;17.62;35.07;97091.84;5048852;28;20182;-68
2021/05/31 11:56:31;;;;;;;1.42;1.33;;;;;;;17.53;34.67;97093.41;5050049;28;20201;-69
2021/05/31 11:58:57;;;;;;;1.65;1.55;;;;;;;17.51;34.90;97090.22;5080214;28;20242;-68